createdAt,value
2018-05-11T00:02:52.037Z,11.50
2018-05-11T00:05:55.353Z,11.50
2018-05-11T00:08:59.445Z,11.40
2018-05-11T00:12:02.749Z,11.40
2018-05-11T00:15:06.841Z,11.40
2018-05-11T00:18:10.144Z,11.40
2018-05-11T00:21:13.470Z,11.40
2018-05-11T00:24:17.570Z,11.40
2018-05-11T00:27:20.877Z,11.40
2018-05-11T00:30:24.966Z,11.40
2018-05-11T00:33:28.294Z,11.40
2018-05-11T00:36:32.393Z,11.30
2018-05-11T00:39:36.490Z,11.30
2018-05-11T00:42:39.806Z,11.30
2018-05-11T00:45:43.145Z,11.30
2018-05-11T00:48:46.454Z,11.30
2018-05-11T00:51:49.778Z,11.30
2018-05-11T00:54:53.093Z,11.30
2018-05-11T00:57:56.417Z,11.30
2018-05-11T01:00:59.740Z,11.30
2018-05-11T01:04:03.047Z,11.30
2018-05-11T01:07:06.370Z,11.30
2018-05-11T01:10:09.728Z,11.30
2018-05-11T01:13:13.032Z,11.20
2018-05-11T01:16:16.404Z,11.30
2018-05-11T01:19:19.693Z,11.30
2018-05-11T01:22:23.018Z,11.30
2018-05-11T01:25:26.317Z,11.30
2018-05-11T01:28:29.638Z,11.20
2018-05-11T01:31:32.937Z,11.20
2018-05-11T01:34:36.258Z,11.20
2018-05-11T01:37:40.349Z,11.20
2018-05-11T01:40:43.674Z,11.20
2018-05-11T01:43:47.765Z,11.20
2018-05-11T01:46:51.080Z,11.20
2018-05-11T01:49:55.166Z,11.20
2018-05-11T01:52:58.494Z,11.20
2018-05-11T01:56:02.571Z,11.20
2018-05-11T01:59:05.897Z,11.10
2018-05-11T02:02:09.196Z,11.20
2018-05-11T02:05:13.293Z,11.20
2018-05-11T02:08:16.617Z,11.20
2018-05-11T02:11:20.702Z,11.20
2018-05-11T02:14:28.063Z,11.20
2018-05-11T02:17:31.597Z,11.20
2018-05-11T02:20:36.383Z,11.20
2018-05-11T02:23:40.801Z,11.20
2018-05-11T02:26:44.300Z,11.20
2018-05-11T02:29:47.704Z,11.20
2018-05-11T02:32:51.129Z,11.20
2018-05-11T02:35:54.608Z,11.20
2018-05-11T02:38:58.128Z,11.20
2018-05-11T02:42:02.567Z,11.20
2018-05-11T02:45:06.200Z,11.20
2018-05-11T02:48:09.595Z,11.20
2018-05-11T02:51:13.697Z,11.20
2018-05-11T02:54:17.002Z,11.20
2018-05-11T02:57:21.085Z,11.20
2018-05-11T03:00:24.411Z,11.20
2018-05-11T03:03:27.718Z,11.20
2018-05-11T03:06:31.821Z,11.20
2018-05-11T03:09:35.142Z,11.20
2018-05-11T03:12:38.499Z,11.20
2018-05-11T03:15:41.806Z,11.20
2018-05-11T03:18:45.253Z,11.20
2018-05-11T03:21:48.485Z,11.20
2018-05-11T03:24:51.793Z,11.20
2018-05-11T03:27:55.113Z,11.20
2018-05-11T03:30:59.186Z,11.20
2018-05-11T03:34:02.509Z,11.20
2018-05-11T03:37:05.825Z,11.20
2018-05-11T03:40:09.157Z,11.20
2018-05-11T03:43:12.508Z,11.20
2018-05-11T03:46:16.578Z,11.20
2018-05-11T03:49:19.917Z,11.20
2018-05-11T03:52:23.989Z,11.20
2018-05-11T03:55:27.314Z,11.20
2018-05-11T03:58:30.626Z,11.20
2018-05-11T04:01:52.362Z,11.20
2018-05-11T04:05:14.080Z,11.20
2018-05-11T04:08:36.016Z,11.20
2018-05-11T04:11:40.112Z,11.20
2018-05-11T04:14:43.437Z,11.20
2018-05-11T04:17:47.518Z,11.30
2018-05-11T04:20:50.919Z,11.20
2018-05-11T04:23:54.164Z,11.30
2018-05-11T04:26:57.493Z,11.30
2018-05-11T04:30:00.801Z,11.30
2018-05-11T04:33:04.157Z,11.30
2018-05-11T04:36:07.467Z,11.30
2018-05-11T04:39:10.786Z,11.30
2018-05-11T04:42:14.109Z,11.30
2018-05-11T04:45:17.434Z,11.30
2018-05-11T04:48:20.750Z,11.30
2018-05-11T04:51:24.073Z,11.30
2018-05-11T04:54:27.392Z,11.30
2018-05-11T04:57:30.697Z,11.30
2018-05-11T05:00:34.785Z,11.20
2018-05-11T05:03:38.121Z,11.20
2018-05-11T05:06:42.215Z,11.10
2018-05-11T05:09:45.606Z,11.10
2018-05-11T05:12:48.909Z,11.10
2018-05-11T05:15:52.229Z,11.10
2018-05-11T05:18:55.553Z,11.00
2018-05-11T05:21:58.877Z,11.00
2018-05-11T05:25:02.185Z,11.00
2018-05-11T05:28:05.519Z,11.10
2018-05-11T05:31:08.865Z,11.10
2018-05-11T05:34:12.161Z,11.30
2018-05-11T05:37:15.480Z,11.30
2018-05-11T05:40:18.785Z,11.40
2018-05-11T05:43:22.873Z,11.60
2018-05-11T05:46:26.181Z,11.60
2018-05-11T05:49:29.497Z,11.60
2018-05-11T05:52:33.569Z,11.60
2018-05-11T05:55:36.887Z,11.70
2018-05-11T05:58:40.220Z,11.80
2018-05-11T06:01:43.527Z,11.80
2018-05-11T06:04:46.850Z,11.80
2018-05-11T06:07:50.149Z,11.80
2018-05-11T06:10:53.559Z,11.90
2018-05-11T06:13:56.821Z,11.90
2018-05-11T06:17:00.149Z,11.90
2018-05-11T06:20:03.462Z,12.00
2018-05-11T06:23:06.784Z,12.10
2018-05-11T06:26:10.893Z,12.20
2018-05-11T06:29:14.965Z,12.20
2018-05-11T06:32:18.290Z,12.20
2018-05-11T06:35:21.593Z,12.10
2018-05-11T06:38:25.681Z,12.30
2018-05-11T06:41:28.985Z,12.30
2018-05-11T06:44:32.309Z,12.40
2018-05-11T06:47:36.419Z,12.50
2018-05-11T06:50:40.485Z,12.50
2018-05-11T06:53:43.801Z,12.50
2018-05-11T06:56:47.100Z,12.60
2018-05-11T06:59:50.425Z,12.60
2018-05-11T07:02:54.501Z,12.70
2018-05-11T07:05:57.821Z,12.70
2018-05-11T07:09:01.126Z,12.80
2018-05-11T07:12:05.209Z,12.90
2018-05-11T07:15:08.541Z,12.90
2018-05-11T07:18:12.633Z,13.00
2018-05-11T07:21:15.966Z,13.00
2018-05-11T07:24:19.275Z,13.00
2018-05-11T07:27:22.597Z,13.20
2018-05-11T07:30:25.900Z,13.30
2018-05-11T07:33:29.229Z,13.40
2018-05-11T07:36:32.529Z,13.60
2018-05-11T07:39:35.885Z,13.70
2018-05-11T07:42:39.183Z,13.70
2018-05-11T07:45:42.502Z,13.80
2018-05-11T07:48:45.806Z,13.90
2018-05-11T07:51:49.133Z,14.00
2018-05-11T07:54:53.218Z,14.10
2018-05-11T07:57:56.516Z,14.00
2018-05-11T08:00:59.838Z,14.10
2018-05-11T08:04:03.986Z,14.30
2018-05-11T08:07:07.235Z,14.30
2018-05-11T08:10:11.325Z,14.30
2018-05-11T08:13:14.625Z,14.30
2018-05-11T08:16:17.949Z,14.40
2018-05-11T08:19:22.021Z,14.60
2018-05-11T08:22:25.344Z,14.50
2018-05-11T08:25:28.649Z,14.70
2018-05-11T08:28:32.729Z,14.90
2018-05-11T08:31:36.049Z,14.80
2018-05-11T08:34:39.348Z,15.00
2018-05-11T08:37:42.670Z,15.10
2018-05-11T08:40:46.790Z,15.20
2018-05-11T08:43:50.118Z,15.20
2018-05-11T08:46:53.426Z,15.20
2018-05-11T08:49:56.765Z,15.20
2018-05-11T08:53:00.828Z,15.40
2018-05-11T08:56:04.149Z,15.40
2018-05-11T08:59:07.455Z,15.50
2018-05-11T09:02:10.778Z,15.60
2018-05-11T09:05:14.869Z,15.80
2018-05-11T09:08:18.262Z,15.80
2018-05-11T09:11:21.516Z,15.70
2018-05-11T09:14:24.813Z,15.60
2018-05-11T09:17:28.136Z,15.70
2018-05-11T09:20:31.441Z,15.70
2018-05-11T09:23:34.764Z,15.90
2018-05-11T09:26:38.837Z,16.30
2018-05-11T09:29:42.157Z,16.20
2018-05-11T09:32:45.481Z,16.30
2018-05-11T09:35:48.805Z,16.40
2018-05-11T09:38:52.117Z,16.20
2018-05-11T09:41:55.437Z,16.00
2018-05-11T09:44:58.761Z,16.10
2018-05-11T09:48:02.832Z,16.20
2018-05-11T09:51:06.155Z,16.30
2018-05-11T09:54:09.485Z,16.30
2018-05-11T09:57:12.813Z,16.40
2018-05-11T10:00:30.745Z,16.60
2018-05-11T10:03:34.053Z,16.60
2018-05-11T10:06:37.377Z,16.70
2018-05-11T10:09:40.686Z,16.70
2018-05-11T10:12:44.781Z,16.80
2018-05-11T10:15:48.085Z,16.80
2018-05-11T10:18:51.405Z,16.70
2018-05-11T10:21:55.489Z,16.80
2018-05-11T10:24:58.818Z,16.80
2018-05-11T10:28:02.909Z,16.70
2018-05-11T10:31:06.222Z,16.70
2018-05-11T10:34:10.328Z,16.70
2018-05-11T10:37:14.404Z,16.60
2018-05-11T10:40:17.724Z,16.60
2018-05-11T10:43:21.050Z,16.70
2018-05-11T10:46:24.378Z,16.80
2018-05-11T10:49:27.708Z,17.00
2018-05-11T10:52:31.008Z,17.20
2018-05-11T10:55:34.329Z,17.20
2018-05-11T10:58:38.397Z,17.00
2018-05-11T11:01:41.712Z,17.00
2018-05-11T11:04:45.017Z,17.10
2018-05-11T11:07:48.336Z,17.10
2018-05-11T11:10:52.406Z,17.00
2018-05-11T11:13:55.736Z,17.00
2018-05-11T11:16:59.041Z,16.90
2018-05-11T11:20:03.221Z,16.70
2018-05-11T11:23:06.460Z,16.70
2018-05-11T11:26:10.529Z,16.50
2018-05-11T11:29:13.841Z,16.40
2018-05-11T11:32:17.145Z,16.40
2018-05-11T11:35:20.487Z,16.40
2018-05-11T11:38:23.793Z,16.50
2018-05-11T11:41:27.113Z,16.60
2018-05-11T11:44:30.414Z,16.70
2018-05-11T11:47:33.831Z,16.80
2018-05-11T11:50:37.068Z,16.90
2018-05-11T11:53:40.393Z,16.90
2018-05-11T11:56:43.693Z,17.00
2018-05-11T11:59:47.013Z,16.90
2018-05-11T12:02:50.309Z,17.00
2018-05-11T12:05:53.633Z,17.00
2018-05-11T12:08:57.005Z,17.10
2018-05-11T12:12:00.268Z,17.40
2018-05-11T12:15:03.567Z,17.60
2018-05-11T12:18:06.893Z,17.90
2018-05-11T12:21:10.193Z,18.00
2018-05-11T12:24:13.513Z,18.00
2018-05-11T12:27:16.816Z,17.90
2018-05-11T12:30:20.133Z,17.90
2018-05-11T12:33:23.453Z,17.80
2018-05-11T12:36:26.773Z,17.90
2018-05-11T12:39:30.069Z,17.90
2018-05-11T12:42:33.393Z,17.80
2018-05-11T12:45:36.708Z,17.80
2018-05-11T12:48:40.007Z,17.90
2018-05-11T12:51:43.329Z,17.90
2018-05-11T12:54:46.629Z,17.90
2018-05-11T12:57:49.941Z,17.80
2018-05-11T13:00:53.268Z,17.60
2018-05-11T13:03:56.588Z,17.50
2018-05-11T13:06:59.890Z,17.40
2018-05-11T13:10:03.208Z,17.30
2018-05-11T13:13:06.517Z,17.20
2018-05-11T13:16:09.837Z,17.10
2018-05-11T13:19:13.175Z,17.10
2018-05-11T13:22:16.493Z,17.10
2018-05-11T13:25:19.796Z,17.00
2018-05-11T13:28:23.109Z,17.00
2018-05-11T13:31:26.421Z,17.20
2018-05-11T13:34:30.489Z,17.60
2018-05-11T13:37:33.812Z,17.60
2018-05-11T13:40:37.109Z,17.80
2018-05-11T13:43:40.425Z,17.80
2018-05-11T13:46:44.545Z,18.00
2018-05-11T13:49:48.621Z,18.00
2018-05-11T13:52:51.959Z,18.00
2018-05-11T13:55:55.260Z,18.00
2018-05-11T13:58:58.586Z,17.90
2018-05-11T14:02:01.881Z,18.00
2018-05-11T14:05:05.202Z,17.90
2018-05-11T14:08:08.501Z,17.70
2018-05-11T14:11:11.850Z,17.80
2018-05-11T14:14:15.153Z,17.80
2018-05-11T14:17:18.480Z,17.70
2018-05-11T14:20:21.808Z,17.80
2018-05-11T14:23:25.133Z,17.90
2018-05-11T14:26:28.463Z,18.00
2018-05-11T14:29:31.761Z,18.10
2018-05-11T14:32:35.078Z,18.30
2018-05-11T14:35:38.383Z,18.30
2018-05-11T14:38:41.744Z,18.40
2018-05-11T14:41:45.046Z,18.40
2018-05-11T14:44:48.357Z,18.50
2018-05-11T14:47:51.657Z,18.50
2018-05-11T14:50:54.981Z,18.50
2018-05-11T14:53:59.112Z,18.90
2018-05-11T14:57:02.383Z,18.80
2018-05-11T15:00:05.702Z,19.00
2018-05-11T15:03:09.780Z,19.10
2018-05-11T15:06:13.097Z,19.10
2018-05-11T15:09:17.214Z,19.50
2018-05-11T15:12:21.277Z,19.80
2018-05-11T15:15:24.680Z,19.70
2018-05-11T15:18:27.910Z,19.60
2018-05-11T15:21:31.228Z,19.80
2018-05-11T15:24:35.313Z,20.30
2018-05-11T15:27:38.634Z,20.30
2018-05-11T15:30:42.706Z,20.90
2018-05-11T15:33:46.029Z,20.90
2018-05-11T15:36:49.333Z,21.30
2018-05-11T15:39:53.429Z,21.30
2018-05-11T15:42:56.737Z,21.30
2018-05-11T15:46:00.062Z,21.30
2018-05-11T15:49:03.386Z,21.20
2018-05-11T15:52:06.729Z,21.10
2018-05-11T15:55:10.033Z,21.30
2018-05-11T15:58:14.122Z,21.20
2018-05-11T16:01:17.429Z,21.20
2018-05-11T16:04:20.746Z,21.20
2018-05-11T16:07:24.819Z,21.00
2018-05-11T16:10:28.137Z,21.00
2018-05-11T16:13:31.462Z,20.70
2018-05-11T16:16:35.529Z,20.00
2018-05-11T16:19:38.852Z,20.00
2018-05-11T16:22:42.934Z,19.30
2018-05-11T16:25:46.258Z,19.20
2018-05-11T16:28:49.553Z,19.00
2018-05-11T16:31:52.878Z,18.80
2018-05-11T16:34:56.183Z,18.60
2018-05-11T16:37:59.497Z,18.50
2018-05-11T16:41:02.825Z,18.30
2018-05-11T16:44:06.138Z,18.20
2018-05-11T16:47:09.468Z,18.10
2018-05-11T16:50:12.767Z,17.90
2018-05-11T16:53:16.093Z,17.80
2018-05-11T16:56:19.397Z,17.70
2018-05-11T16:59:22.725Z,17.60
2018-05-11T17:02:26.025Z,17.50
2018-05-11T17:05:30.118Z,17.40
2018-05-11T17:08:33.426Z,17.40
2018-05-11T17:11:36.754Z,17.40
2018-05-11T17:14:40.062Z,17.40
2018-05-11T17:17:43.385Z,17.30
2018-05-11T17:20:46.727Z,17.30
2018-05-11T17:23:50.793Z,17.10
2018-05-11T17:26:54.113Z,17.00
2018-05-11T17:29:57.453Z,17.00
2018-05-11T17:33:00.769Z,16.90
2018-05-11T17:36:04.091Z,16.70
2018-05-11T17:39:07.418Z,16.60
2018-05-11T17:42:10.745Z,16.50
2018-05-11T17:45:14.069Z,16.40
2018-05-11T17:48:17.380Z,16.40
2018-05-11T17:51:20.700Z,16.30
2018-05-11T17:54:24.023Z,16.20
2018-05-11T17:57:28.099Z,16.10
2018-05-11T18:00:31.426Z,16.10
2018-05-11T18:03:35.509Z,16.00
2018-05-11T18:06:38.822Z,16.00
2018-05-11T18:09:42.151Z,15.90
2018-05-11T18:12:45.469Z,15.90
2018-05-11T18:15:48.798Z,15.80
2018-05-11T18:18:52.108Z,15.70
2018-05-11T18:21:55.432Z,15.60
2018-05-11T18:24:58.746Z,15.50
2018-05-11T18:28:02.060Z,15.40
2018-05-11T18:31:05.413Z,15.40
2018-05-11T18:34:09.480Z,15.20
2018-05-11T18:37:12.786Z,15.20
2018-05-11T18:40:16.121Z,15.10
2018-05-11T18:43:20.215Z,15.00
2018-05-11T18:46:24.392Z,14.90
2018-05-11T18:49:27.621Z,14.90
2018-05-11T18:52:30.949Z,14.80
2018-05-11T18:55:35.023Z,14.70
2018-05-11T18:58:38.360Z,14.60
2018-05-11T19:01:41.748Z,14.60
2018-05-11T19:04:45.018Z,14.50
2018-05-11T19:07:48.321Z,14.40
2018-05-11T19:10:51.645Z,14.40
2018-05-11T19:13:54.969Z,14.30
2018-05-11T19:16:58.297Z,14.20
2018-05-11T19:20:01.612Z,14.20
2018-05-11T19:23:04.974Z,14.10
2018-05-11T19:26:08.316Z,14.10
2018-05-11T19:29:11.597Z,14.00
2018-05-11T19:32:14.922Z,14.00
2018-05-11T19:35:19.064Z,13.90
2018-05-11T19:38:22.331Z,13.80
2018-05-11T19:41:26.405Z,13.70
2018-05-11T19:44:29.737Z,13.70
2018-05-11T19:47:33.819Z,13.60
2018-05-11T19:50:37.149Z,13.60
2018-05-11T19:53:41.244Z,13.50
2018-05-11T19:56:44.548Z,13.50
2018-05-11T19:59:48.650Z,13.50
2018-05-11T20:02:51.965Z,13.50
2018-05-11T20:05:56.055Z,13.30
2018-05-11T20:08:59.357Z,13.30
2018-05-11T20:12:02.685Z,13.30
2018-05-11T20:15:06.759Z,13.20
2018-05-11T20:18:10.092Z,13.20
2018-05-11T20:21:14.198Z,13.10
2018-05-11T20:24:18.273Z,13.10
2018-05-11T20:27:21.601Z,13.00
2018-05-11T20:30:25.689Z,12.90
2018-05-11T20:33:29.017Z,12.90
2018-05-11T20:36:33.094Z,12.80
2018-05-11T20:39:36.419Z,12.80
2018-05-11T20:42:39.733Z,12.70
2018-05-11T20:45:43.829Z,12.70
2018-05-11T20:48:47.133Z,12.70
2018-05-11T20:51:51.229Z,12.60
2018-05-11T20:54:54.542Z,12.60
2018-05-11T20:57:57.853Z,12.50
2018-05-11T21:01:01.959Z,12.40
2018-05-11T21:04:06.029Z,12.30
2018-05-11T21:07:09.346Z,12.30
2018-05-11T21:10:12.656Z,12.20
2018-05-11T21:13:15.990Z,12.20
2018-05-11T21:16:19.317Z,12.10
2018-05-11T21:19:22.627Z,12.10
2018-05-11T21:22:25.966Z,12.00
2018-05-11T21:25:30.033Z,12.00
2018-05-11T21:28:33.357Z,11.90
2018-05-11T21:31:36.669Z,11.90
2018-05-11T21:34:40.757Z,11.80
2018-05-11T21:37:44.086Z,11.80
2018-05-11T21:40:48.256Z,11.70
2018-05-11T21:43:51.497Z,11.70
2018-05-11T21:46:55.585Z,11.60
2018-05-11T21:49:58.892Z,11.60
2018-05-11T21:53:02.981Z,11.60
2018-05-11T21:56:06.312Z,11.50
2018-05-11T21:59:10.384Z,11.50
2018-05-11T22:02:13.710Z,11.50
2018-05-11T22:05:17.018Z,11.50
2018-05-11T22:08:21.114Z,11.50
2018-05-11T22:11:24.417Z,11.50
2018-05-11T22:14:27.740Z,11.50
2018-05-11T22:17:31.061Z,11.50
2018-05-11T22:20:34.365Z,11.50
2018-05-11T22:23:37.693Z,11.60
2018-05-11T22:26:41.009Z,11.60
2018-05-11T22:29:45.101Z,11.70
2018-05-11T22:32:48.420Z,11.70
2018-05-11T22:35:52.511Z,11.70
2018-05-11T22:38:55.844Z,11.70
2018-05-11T22:41:59.938Z,11.80
2018-05-11T22:45:03.253Z,11.70
2018-05-11T22:48:06.577Z,11.70
2018-05-11T22:51:09.897Z,11.70
2018-05-11T22:54:13.209Z,11.70
2018-05-11T22:57:16.541Z,11.70
2018-05-11T23:03:54.237Z,11.80
2018-05-11T23:06:57.556Z,11.80
2018-05-11T23:10:01.703Z,11.80
2018-05-11T23:13:04.965Z,11.80
2018-05-11T23:16:09.041Z,11.90
2018-05-11T23:19:12.370Z,11.80
2018-05-11T23:22:16.465Z,11.90
2018-05-11T23:25:19.769Z,11.90
2018-05-11T23:28:23.094Z,11.90
2018-05-11T23:31:26.405Z,12.00
2018-05-11T23:34:29.721Z,12.00
2018-05-11T23:37:33.038Z,12.00
2018-05-11T23:40:36.388Z,12.20
2018-05-11T23:43:39.702Z,12.20
2018-05-11T23:46:43.025Z,12.10
2018-05-11T23:49:46.339Z,12.10
2018-05-11T23:52:49.685Z,12.10
2018-05-11T23:55:53.000Z,12.10
2018-05-11T23:58:56.301Z,12.00
